Terminal Aerodrome Forecast
Issued by NWS Twin Cities, MN

Home | Current Version | Previous Version | Graphics & Text | Print | Product List | Glossary On
Versions: 1 2 3 4 5 6 7 8 9 10 11 12 13 14 15 16 17 18
943
FTUS43 KMPX 062324
TAFSTC
TAF
KSTC 062324Z 0700/0724 25020G29KT 3SM -SN OVC025
     FM070300 27020G28KT P6SM OVC025 PROB30 0721/0724 4SM -SN
      OVC015=

USA.gov is the U.S. government's official web portal to all federal, state and local government web resources and services.